createdAt,value
2022-11-20T01:05:39.943Z,0.10
2022-11-20T01:17:40.629Z,0.20
2022-11-20T01:22:47.888Z,0.20
2022-11-20T01:27:54.367Z,1.45
2022-11-20T01:32:59.980Z,1.67
2022-11-20T01:38:04.504Z,3.30
2022-11-20T01:43:24.968Z,0.10
2022-11-20T01:48:42.468Z,1.98
2022-11-20T01:53:47.667Z,0.38
2022-11-20T01:58:54.705Z,0.20
2022-11-20T02:03:59.803Z,1.67
2022-11-20T02:09:04.380Z,0.20
2022-11-20T02:14:10.836Z,1.75
2022-11-20T02:19:28.926Z,0.35
2022-11-20T02:24:32.368Z,0.30
2022-11-20T02:29:54.899Z,0.43
2022-11-20T02:35:01.073Z,1.85
2022-11-20T02:40:08.367Z,1.55
2022-11-20T02:45:16.194Z,5.28
2022-11-20T02:50:26.566Z,2.10
2022-11-20T02:55:40.723Z,2.78
2022-11-20T03:00:49.849Z,6.20
2022-11-20T03:05:56.911Z,9.43
2022-11-20T03:11:18.884Z,18.67
2022-11-20T03:16:25.703Z,30.80
2022-11-20T03:21:32.643Z,24.52
2022-11-20T03:26:46.186Z,47.15
2022-11-20T03:31:53.018Z,40.97
2022-11-20T03:36:59.066Z,23.73
2022-11-20T03:42:05.063Z,24.65
2022-11-20T03:47:10.417Z,25.02
2022-11-20T03:58:46.101Z,38.08
2022-11-20T04:03:56.054Z,28.77
2022-11-20T04:09:05.658Z,34.40
2022-11-20T04:14:21.618Z,29.65
2022-11-20T04:19:30.957Z,27.90
2022-11-20T04:25:12.036Z,40.85
2022-11-20T04:30:48.833Z,19.73
2022-11-20T04:41:51.009Z,23.60
2022-11-20T04:47:43.982Z,30.27
2022-11-20T04:53:46.327Z,39.65
2022-11-20T05:05:17.961Z,35.58
2022-11-20T05:10:29.539Z,43.67
2022-11-20T05:15:38.148Z,30.48
2022-11-20T05:20:47.175Z,58.95
2022-11-20T05:25:59.350Z,48.20
2022-11-20T05:31:11.775Z,49.08
2022-11-20T05:36:16.126Z,45.25
2022-11-20T05:41:21.435Z,33.42
2022-11-20T05:46:28.219Z,37.90
2022-11-20T05:51:31.715Z,29.52
2022-11-20T05:56:34.347Z,39.20
2022-11-20T06:01:37.545Z,40.45
2022-11-20T06:06:40.490Z,31.23
2022-11-20T06:11:43.408Z,23.00
2022-11-20T06:16:49.489Z,54.30
2022-11-20T06:21:52.319Z,22.88
2022-11-20T06:26:55.149Z,48.92
2022-11-20T06:31:59.250Z,55.50
2022-11-20T06:37:06.030Z,61.20
2022-11-20T06:42:13.034Z,30.87
2022-11-20T06:47:38.394Z,50.83
2022-11-20T06:52:49.901Z,39.67
2022-11-20T06:58:35.200Z,41.00
2022-11-20T07:03:47.122Z,18.15
2022-11-20T07:14:31.299Z,45.50
2022-11-20T07:19:40.991Z,25.92
2022-11-20T07:25:02.921Z,33.63
2022-11-20T07:30:56.226Z,71.35
2022-11-20T08:04:28.047Z,63.72
2022-11-20T08:30:57.916Z,57.60
2022-11-20T09:06:14.064Z,34.03
2022-11-20T09:18:11.787Z,21.88
2022-11-20T09:23:16.069Z,27.58
2022-11-20T09:28:22.909Z,26.13
2022-11-20T09:33:26.534Z,29.60
2022-11-20T09:38:33.285Z,25.58
2022-11-20T09:43:44.934Z,44.75
2022-11-20T09:49:34.087Z,30.50
2022-11-20T09:54:44.809Z,33.20
2022-11-20T10:12:12.995Z,31.60
2022-11-20T10:18:28.433Z,28.67
2022-11-20T11:00:16.157Z,11.95
2022-11-20T11:12:07.216Z,25.58
2022-11-20T11:52:38.690Z,15.13
2022-11-20T12:04:47.708Z,15.00
2022-11-20T12:28:10.420Z,22.45
2022-11-20T12:40:00.632Z,16.50
2022-11-20T14:07:10.994Z,17.38
2022-11-20T16:47:52.031Z,25.77
2022-11-20T16:53:00.536Z,19.77
2022-11-20T16:59:47.410Z,24.52
2022-11-20T17:28:02.659Z,31.40
2022-11-20T17:39:32.894Z,29.58
2022-11-20T17:45:18.961Z,23.25
2022-11-20T17:50:26.163Z,21.20
2022-11-20T18:01:12.335Z,18.95
2022-11-20T18:06:27.831Z,27.23
2022-11-20T18:11:42.866Z,28.50
2022-11-20T18:17:19.513Z,24.17
2022-11-20T18:33:36.104Z,24.58
2022-11-20T18:39:04.181Z,32.28
2022-11-20T18:50:09.610Z,17.17
2022-11-20T18:55:41.560Z,33.58
2022-11-20T19:00:49.647Z,24.65
2022-11-20T19:06:03.484Z,28.83
2022-11-20T19:11:29.294Z,30.27
2022-11-20T19:16:35.296Z,30.90
2022-11-20T19:27:04.563Z,64.33
2022-11-20T19:32:17.729Z,36.08
2022-11-20T19:43:56.133Z,28.35
2022-11-20T19:49:25.969Z,88.10
2022-11-20T19:54:47.285Z,90.07
2022-11-20T20:01:10.700Z,53.83
2022-11-20T20:11:53.191Z,39.63
2022-11-20T20:17:12.435Z,42.85
2022-11-20T20:22:16.039Z,27.80
2022-11-20T20:27:20.284Z,35.17
2022-11-20T20:32:25.794Z,38.72
2022-11-20T20:37:34.077Z,31.70
2022-11-20T20:42:41.042Z,17.85
2022-11-20T20:47:46.075Z,21.83
2022-11-20T20:52:50.809Z,35.30
2022-11-20T20:57:56.115Z,39.30
2022-11-20T21:03:00.642Z,24.20
2022-11-20T21:08:25.567Z,43.78
2022-11-20T21:13:29.998Z,40.65
2022-11-20T21:18:44.557Z,57.65
2022-11-20T21:23:49.163Z,40.00
2022-11-20T21:28:53.741Z,33.65
2022-11-20T21:34:01.490Z,36.55
2022-11-20T21:39:10.248Z,36.38
2022-11-20T21:44:34.088Z,32.65
2022-11-20T21:49:39.460Z,23.88
2022-11-20T21:54:43.004Z,41.78
2022-11-20T21:59:53.121Z,45.10
2022-11-20T22:04:56.171Z,39.83
2022-11-20T22:10:14.376Z,34.95
2022-11-20T22:15:53.621Z,42.55
2022-11-20T22:20:56.301Z,30.98
2022-11-20T22:26:04.894Z,31.92
2022-11-20T22:31:11.783Z,43.35
2022-11-20T22:36:22.925Z,24.48
2022-11-20T22:41:30.736Z,36.58
2022-11-20T22:46:39.068Z,28.20
2022-11-20T22:51:44.219Z,28.13
2022-11-20T22:56:47.242Z,38.42
2022-11-20T23:01:50.373Z,30.08
2022-11-20T23:06:58.568Z,36.10
2022-11-20T23:12:06.786Z,39.08
2022-11-20T23:17:12.796Z,125.47
2022-11-20T23:22:18.616Z,36.83
2022-11-20T23:27:28.300Z,31.05
2022-11-20T23:32:32.584Z,26.67
2022-11-20T23:37:38.005Z,24.25
2022-11-20T23:43:01.675Z,21.00
2022-11-20T23:48:08.077Z,41.45
2022-11-20T23:53:27.637Z,20.50
2022-11-20T23:58:42.950Z,20.38
